Time;durP1;ratioP1;P1;durP2;ratioP2;P2;SDS_P1;SDS_P2;PMS_P1;PMS_P2;Temp;Humidity;BMP_temperature;BMP_pressure;BME280_temperature;BME280_humidity;BME280_pressure;Samples;Min_cycle;Max_cycle;Signal;HPM_P1;HPM_P2
2023/04/05 00:00:42;;;;;;;11.30;4.65;;;-1.10;99.90;;;;;;5086407;28;20464;-82
2023/04/05 00:03:11;;;;;;;12.10;5.32;;;-1.10;99.90;;;;;;5055454;28;20535;-84
2023/04/05 00:05:38;;;;;;;10.38;4.60;;;-1.20;99.90;;;;;;5032976;28;20080;-83
2023/04/05 00:08:07;;;;;;;8.75;3.80;;;-1.20;99.90;;;;;;5053828;28;20047;-83
2023/04/05 00:10:33;;;;;;;8.27;3.90;;;-1.30;99.90;;;;;;5080917;28;20435;-83
2023/04/05 00:12:59;;;;;;;9.75;4.25;;;-1.10;99.90;;;;;;5061327;28;20110;-83
2023/04/05 00:15:30;;;;;;;10.00;4.43;;;-1.30;99.90;;;;;;5058347;28;20083;-83
2023/04/05 00:17:57;;;;;;;10.30;4.25;;;-1.30;99.90;;;;;;5076587;28;20170;-82
2023/04/05 00:20:22;;;;;;;9.60;3.83;;;-1.40;99.90;;;;;;5056584;28;20044;-82
2023/04/05 00:22:49;;;;;;;10.38;4.00;;;-1.40;99.90;;;;;;5084976;28;20052;-82
2023/04/05 00:25:16;;;;;;;11.10;4.38;;;-1.40;99.90;;;;;;5069289;28;20059;-83
2023/04/05 00:27:45;;;;;;;10.82;4.35;;;-1.50;99.90;;;;;;5067498;28;20042;-82
2023/04/05 00:30:11;;;;;;;13.13;4.85;;;-1.50;99.90;;;;;;5077365;28;20047;-82
2023/04/05 00:32:37;;;;;;;9.25;3.95;;;-1.50;99.90;;;;;;5070134;28;20130;-84
2023/04/05 00:35:03;;;;;;;7.30;4.00;;;-1.50;99.90;;;;;;5070442;28;20135;-81
2023/04/05 00:37:29;;;;;;;14.10;4.70;;;-1.60;99.90;;;;;;5035930;28;20629;-82
2023/04/05 00:39:56;;;;;;;10.45;4.18;;;-1.60;99.90;;;;;;5071887;28;20052;-82
2023/04/05 00:42:22;;;;;;;10.95;4.30;;;-1.70;99.90;;;;;;5071076;28;20062;-83
2023/04/05 00:44:48;;;;;;;8.70;4.40;;;-1.70;99.90;;;;;;5075027;28;20115;-82
2023/04/05 00:47:13;;;;;;;9.80;4.10;;;-1.70;99.90;;;;;;5053807;28;20532;-83
2023/04/05 00:49:40;;;;;;;8.18;4.20;;;-1.70;99.90;;;;;;5070196;28;20120;-83
2023/04/05 00:52:07;;;;;;;10.85;4.45;;;-1.70;99.90;;;;;;5085534;28;20062;-82
2023/04/05 00:54:33;;;;;;;9.73;4.10;;;-1.70;99.90;;;;;;5056903;28;20040;-83
2023/04/05 00:56:59;;;;;;;11.45;4.40;;;-1.70;99.90;;;;;;5063783;28;20633;-82
2023/04/05 00:59:27;;;;;;;8.10;3.85;;;-1.60;99.90;;;;;;5065723;28;20059;-83
2023/04/05 01:02:12;;;;;;;9.65;4.28;;;-1.60;99.90;;;;;;5079021;28;20052;-82
2023/04/05 01:04:48;;;;;;;9.00;4.03;;;-1.60;99.90;;;;;;5077153;28;20044;-82
2023/04/05 01:07:51;;;;;;;9.95;4.22;;;-1.60;99.90;;;;;;5055174;28;20048;-82
2023/04/05 01:10:20;;;;;;;11.40;4.13;;;-1.60;99.90;;;;;;4988908;28;20417;-82
2023/04/05 01:12:46;;;;;;;9.02;4.10;;;-1.60;99.90;;;;;;5052587;28;20123;-82
2023/04/05 01:15:12;;;;;;;8.35;3.85;;;-1.60;99.90;;;;;;5037320;28;20047;-81
2023/04/05 01:17:38;;;;;;;8.57;4.32;;;-1.60;99.90;;;;;;5058387;28;20060;-82
2023/04/05 01:20:10;;;;;;;9.68;4.28;;;-1.70;99.90;;;;;;5072220;28;20420;-83
2023/04/05 01:22:42;;;;;;;8.40;3.88;;;-1.80;99.90;;;;;;5087877;28;20165;-81
2023/04/05 01:25:45;;;;;;;12.23;4.85;;;-1.80;99.90;;;;;;5054040;28;20055;-82
2023/04/05 01:28:45;;;;;;;11.75;4.40;;;-1.90;99.90;;;;;;5061350;28;20044;-82
2023/04/05 01:31:50;;;;;;;9.18;4.30;;;-1.90;99.90;;;;;;5061645;28;20048;-81
2023/04/05 01:34:41;;;;;;;12.32;4.28;;;-1.90;99.90;;;;;;5021689;28;20056;-81
2023/04/05 01:37:12;;;;;;;13.32;4.28;;;-1.90;99.90;;;;;;5045296;28;20067;-82
2023/04/05 01:39:38;;;;;;;11.45;4.43;;;-1.90;99.90;;;;;;5083042;28;20043;-81
2023/04/05 01:42:04;;;;;;;11.73;4.57;;;-1.90;99.90;;;;;;5075756;28;20044;-84
2023/04/05 01:44:30;;;;;;;10.27;4.88;;;-2.00;99.90;;;;;;5083263;28;20051;-82
2023/04/05 01:46:56;;;;;;;10.68;4.82;;;-2.00;99.90;;;;;;5074072;28;20055;-81
2023/04/05 01:49:23;;;;;;;11.10;5.13;;;-1.90;99.90;;;;;;5050867;28;20127;-82
2023/04/05 01:51:49;;;;;;;14.60;5.18;;;-1.90;99.90;;;;;;5068045;28;20075;-85
2023/04/05 01:54:15;;;;;;;11.30;5.07;;;-1.90;99.90;;;;;;5061018;28;20129;-83
2023/04/05 01:56:40;;;;;;;12.82;5.45;;;-1.90;99.90;;;;;;5069972;28;20051;-82
2023/04/05 01:59:06;;;;;;;17.52;5.60;;;-1.90;99.90;;;;;;5079656;28;20517;-82
2023/04/05 02:01:32;;;;;;;10.77;5.45;;;-1.90;99.90;;;;;;5072955;28;20055;-83
2023/04/05 02:03:57;;;;;;;10.88;4.90;;;-2.00;99.90;;;;;;5036526;28;20055;-81
2023/04/05 02:06:23;;;;;;;14.90;5.60;;;-2.00;99.90;;;;;;5074994;28;20055;-82
2023/04/05 02:08:49;;;;;;;10.35;5.53;;;-2.00;99.90;;;;;;5060908;28;20131;-82
2023/04/05 02:11:15;;;;;;;12.60;5.88;;;-2.00;99.90;;;;;;5068172;28;20399;-83
2023/04/05 02:13:40;;;;;;;14.55;5.60;;;-2.00;99.90;;;;;;5059624;28;20126;-82
2023/04/05 02:16:06;;;;;;;12.98;5.72;;;-2.10;99.90;;;;;;5073475;28;20039;-81
2023/04/05 02:18:32;;;;;;;12.45;5.38;;;-2.10;99.90;;;;;;5048947;28;20063;-82
2023/04/05 02:21:03;;;;;;;12.35;5.00;;;-2.10;99.90;;;;;;5056839;28;20036;-82
2023/04/05 02:23:29;;;;;;;13.45;5.45;;;-2.10;99.90;;;;;;5060589;28;20056;-82
2023/04/05 02:25:56;;;;;;;13.43;5.88;;;-2.10;99.90;;;;;;5082078;28;20406;-85
2023/04/05 02:28:21;;;;;;;13.70;5.80;;;-2.10;99.90;;;;;;5070083;28;20040;-81
2023/04/05 02:30:47;;;;;;;14.20;5.63;;;-2.10;99.90;;;;;;5057338;28;20040;-81
2023/04/05 02:33:13;;;;;;;12.63;4.82;;;-2.10;99.90;;;;;;5084710;28;20058;-82
2023/04/05 02:35:38;;;;;;;15.45;5.72;;;-2.10;99.90;;;;;;5059447;28;20055;-81
2023/04/05 02:38:04;;;;;;;10.10;4.75;;;-2.20;99.90;;;;;;5075117;28;20140;-82
2023/04/05 02:40:30;;;;;;;13.52;5.85;;;-2.10;99.90;;;;;;5056680;28;20040;-81
2023/04/05 02:42:56;;;;;;;13.25;5.93;;;-2.10;99.90;;;;;;5089564;28;20040;-85
2023/04/05 02:45:22;;;;;;;9.88;5.00;;;-2.10;99.90;;;;;;5054857;28;20047;-82
2023/04/05 02:47:48;;;;;;;11.63;5.40;;;-2.10;99.90;;;;;;5042067;28;20114;-82
2023/04/05 02:50:14;;;;;;;14.63;6.00;;;-2.20;99.90;;;;;;5075223;28;20052;-83
2023/04/05 02:52:40;;;;;;;13.45;5.30;;;-2.20;99.90;;;;;;5036546;28;20056;-81
2023/04/05 02:55:06;;;;;;;11.35;5.28;;;-2.20;1.00;;;;;;5073190;28;20044;-81
2023/04/05 02:57:32;;;;;;;10.93;5.07;;;-2.10;1.00;;;;;;5074681;28;20051;-81
2023/04/05 02:59:58;;;;;;;11.57;5.22;;;-2.20;1.00;;;;;;5055098;28;20167;-84
2023/04/05 03:02:23;;;;;;;11.35;5.25;;;-2.20;1.00;;;;;;5071315;28;20051;-81
2023/04/05 03:04:52;;;;;;;14.32;4.97;;;-2.20;1.00;;;;;;5069089;28;20070;-81
2023/04/05 03:07:18;;;;;;;10.73;4.55;;;-2.20;1.00;;;;;;5055092;28;20059;-80
2023/04/05 03:09:46;;;;;;;13.30;5.13;;;-2.30;99.90;;;;;;5083709;28;20054;-81
2023/04/05 03:12:12;;;;;;;10.20;5.18;;;-2.20;99.90;;;;;;5054495;28;20048;-80
2023/04/05 03:14:38;;;;;;;9.52;4.90;;;-2.30;99.90;;;;;;5071932;28;20093;-81
2023/04/05 03:17:05;;;;;;;13.38;5.70;;;-2.40;1.00;;;;;;5051288;28;20127;-81
2023/04/05 03:19:31;;;;;;;9.23;4.68;;;-2.40;1.00;;;;;;5079682;28;21285;-81
2023/04/05 03:21:57;;;;;;;13.70;5.25;;;-2.40;1.00;;;;;;5053651;28;20123;-79
2023/04/05 03:24:23;;;;;;;8.70;4.75;;;-2.40;1.00;;;;;;5073004;28;20066;-81
2023/04/05 03:26:48;;;;;;;12.68;5.72;;;-2.20;1.00;;;;;;5087695;28;20123;-81
2023/04/05 03:29:15;;;;;;;11.77;5.13;;;-2.40;1.00;;;;;;5055040;28;20050;-81
2023/04/05 03:31:41;;;;;;;14.35;5.78;;;-2.30;1.00;;;;;;5076330;28;20051;-81
2023/04/05 03:34:07;;;;;;;12.23;5.22;;;-2.40;1.00;;;;;;5052671;28;20036;-82
2023/04/05 03:36:41;;;;;;;11.07;5.25;;;-2.30;1.00;;;;;;5051958;28;20044;-81
2023/04/05 03:39:09;;;;;;;12.02;5.53;;;-2.30;1.00;;;;;;5070744;28;20044;-83
2023/04/05 03:41:35;;;;;;;14.65;5.63;;;-2.40;1.00;;;;;;5037930;28;20055;-82
2023/04/05 03:44:01;;;;;;;12.38;5.03;;;-2.40;1.00;;;;;;5080600;28;20035;-83
2023/04/05 03:46:27;;;;;;;11.25;4.95;;;-2.40;1.00;;;;;;5093069;28;20400;-81
2023/04/05 03:48:53;;;;;;;11.60;5.30;;;-2.40;1.00;;;;;;5061895;28;20392;-81
2023/04/05 03:51:18;;;;;;;12.93;5.20;;;-2.50;1.00;;;;;;5066137;28;20052;-81
2023/04/05 03:53:45;;;;;;;12.40;5.38;;;-2.50;1.00;;;;;;5043898;28;20059;-82
2023/04/05 03:56:11;;;;;;;14.40;5.57;;;-2.50;1.00;;;;;;5073370;28;20037;-81
2023/04/05 03:58:37;;;;;;;10.80;5.32;;;-2.50;1.00;;;;;;5062536;28;20040;-81
2023/04/05 04:01:03;;;;;;;11.65;5.53;;;-2.40;1.00;;;;;;5064705;28;20075;-81
2023/04/05 04:03:29;;;;;;;12.48;4.88;;;-2.50;1.00;;;;;;5036100;28;20553;-81
2023/04/05 04:05:56;;;;;;;11.63;5.78;;;-2.50;1.00;;;;;;5075916;28;20051;-81
2023/04/05 04:08:22;;;;;;;12.20;5.50;;;-2.50;1.00;;;;;;5054571;28;20131;-81
2023/04/05 04:10:48;;;;;;;13.85;5.25;;;-2.50;1.00;;;;;;5058492;28;20044;-81
2023/04/05 04:13:14;;;;;;;11.57;5.13;;;-2.60;1.00;;;;;;5053217;28;20397;-81
2023/04/05 04:15:40;;;;;;;12.38;5.20;;;-2.60;1.00;;;;;;5078796;28;20040;-81
2023/04/05 04:18:05;;;;;;;11.10;4.88;;;-2.60;1.00;;;;;;5084788;28;20044;-81
2023/04/05 04:20:31;;;;;;;10.23;4.60;;;-2.60;1.00;;;;;;5074367;28;20044;-81
2023/04/05 04:22:57;;;;;;;11.38;5.20;;;-2.60;1.00;;;;;;5034872;28;20102;-81
2023/04/05 04:25:25;;;;;;;10.55;4.85;;;-2.70;1.00;;;;;;5087926;28;20044;-81
2023/04/05 04:27:51;;;;;;;12.63;5.20;;;-2.70;1.00;;;;;;5070179;28;20051;-81
2023/04/05 04:30:21;;;;;;;12.43;5.55;;;-2.80;1.00;;;;;;5067042;28;20130;-81
2023/04/05 04:32:52;;;;;;;14.02;5.53;;;-2.60;1.00;;;;;;5076846;28;20101;-81
2023/04/05 04:35:28;;;;;;;11.23;5.00;;;-2.70;1.00;;;;;;5071581;28;20036;-82
2023/04/05 04:37:58;;;;;;;11.15;5.10;;;-2.70;1.00;;;;;;5049550;28;20445;-81
2023/04/05 04:40:38;;;;;;;12.73;5.00;;;-2.70;1.00;;;;;;5056210;28;20063;-81
2023/04/05 04:43:08;;;;;;;9.63;4.35;;;-2.70;1.00;;;;;;5075848;28;20048;-81
2023/04/05 04:45:37;;;;;;;11.75;5.68;;;-2.70;1.00;;;;;;5074840;28;20084;-82
2023/04/05 04:48:07;;;;;;;10.27;4.45;;;-2.70;1.00;;;;;;5057762;28;20656;-82
2023/04/05 04:50:33;;;;;;;10.27;5.10;;;-2.70;1.00;;;;;;5073885;28;20135;-81
2023/04/05 04:53:00;;;;;;;14.13;5.65;;;-2.80;1.00;;;;;;5073956;28;20551;-80
2023/04/05 04:55:32;;;;;;;11.48;5.13;;;-2.80;1.00;;;;;;5062011;28;20036;-80
2023/04/05 04:57:58;;;;;;;11.32;4.97;;;-2.90;1.00;;;;;;5090860;28;20079;-79
2023/04/05 05:00:24;;;;;;;12.38;5.00;;;-3.00;1.00;;;;;;5059013;28;20102;-78
2023/04/05 05:02:51;;;;;;;13.15;4.68;;;-3.00;1.00;;;;;;5049226;28;20397;-80
2023/04/05 05:05:21;;;;;;;12.48;4.90;;;-3.00;1.00;;;;;;5045420;28;20693;-80
2023/04/05 05:07:47;;;;;;;9.57;4.80;;;-3.10;1.00;;;;;;5063478;28;20473;-79
2023/04/05 05:10:16;;;;;;;11.60;4.28;;;-3.10;1.00;;;;;;5071177;28;20048;-79
2023/04/05 05:12:42;;;;;;;12.77;5.43;;;-3.10;1.00;;;;;;5060080;28;20032;-79
2023/04/05 05:15:09;;;;;;;11.13;5.03;;;-3.20;1.00;;;;;;5086891;28;20047;-79
2023/04/05 05:17:36;;;;;;;11.80;5.70;;;-3.20;1.00;;;;;;5079315;28;20082;-81
2023/04/05 05:20:09;;;;;;;12.85;5.40;;;-3.10;1.00;;;;;;5042862;28;20076;-79
2023/04/05 05:22:39;;;;;;;11.52;5.53;;;-3.10;1.00;;;;;;5054991;28;20043;-80
2023/04/05 05:25:06;;;;;;;13.93;5.03;;;-2.90;1.00;;;;;;5052736;28;20036;-79
2023/04/05 05:27:33;;;;;;;11.23;5.28;;;-3.10;1.00;;;;;;5075745;28;20105;-80
2023/04/05 05:29:59;;;;;;;14.30;5.22;;;-3.00;1.00;;;;;;5068534;28;20070;-79
2023/04/05 05:32:24;;;;;;;12.73;5.63;;;-2.70;1.00;;;;;;5078927;28;20052;-83
2023/04/05 05:34:50;;;;;;;10.80;5.30;;;-3.00;1.00;;;;;;5047497;28;20047;-83
2023/04/05 05:37:16;;;;;;;14.63;7.07;;;-3.00;1.00;;;;;;5057448;28;20501;-82
2023/04/05 05:39:45;;;;;;;11.95;5.93;;;-2.90;1.00;;;;;;5073588;28;20129;-82
2023/04/05 05:42:10;;;;;;;13.88;6.13;;;-2.90;1.00;;;;;;5074971;28;20037;-82
2023/04/05 05:44:37;;;;;;;15.40;6.65;;;-2.90;1.00;;;;;;5053332;28;20043;-82
2023/04/05 05:47:03;;;;;;;15.52;7.03;;;-2.70;1.00;;;;;;5079075;28;20054;-83
2023/04/05 05:49:30;;;;;;;19.30;7.75;;;-2.70;1.00;;;;;;5055399;28;20055;-83
2023/04/05 05:51:56;;;;;;;17.83;7.97;;;-2.70;1.00;;;;;;5057923;28;20469;-83
2023/04/05 05:54:21;;;;;;;15.52;7.30;;;-2.60;1.00;;;;;;5053464;28;20043;-86
2023/04/05 05:56:47;;;;;;;19.02;7.93;;;-2.50;1.00;;;;;;5051671;28;20044;-85
2023/04/05 05:59:13;;;;;;;15.07;7.18;;;-2.40;22.20;;;;;;5074843;28;20508;-84
2023/04/05 06:01:41;;;;;;;21.92;8.80;;;-2.20;90.10;;;;;;5060044;28;20058;-85
2023/04/05 06:04:07;;;;;;;17.85;8.80;;;-1.90;99.90;;;;;;5076625;28;20554;-82
2023/04/05 06:06:34;;;;;;;20.10;10.27;;;-1.60;99.90;;;;;;5076081;28;20056;-83
2023/04/05 06:09:00;;;;;;;20.10;9.32;;;-1.30;99.90;;;;;;5058105;28;20052;-84
2023/04/05 06:11:25;;;;;;;16.52;7.95;;;-1.00;99.90;;;;;;5059022;28;20051;-86
2023/04/05 06:13:53;;;;;;;18.35;8.25;;;-0.70;99.90;;;;;;5062600;28;20043;-85
2023/04/05 06:16:20;;;;;;;16.88;8.90;;;-0.50;99.90;;;;;;5072348;28;20063;-81
2023/04/05 06:18:46;;;;;;;12.95;7.45;;;-0.30;99.90;;;;;;5073391;28;20502;-79
2023/04/05 06:21:12;;;;;;;16.17;8.15;;;-0.10;99.90;;;;;;5084792;28;20505;-79
2023/04/05 06:23:39;;;;;;;15.88;9.07;;;0.20;99.90;;;;;;5063860;28;20485;-86
2023/04/05 06:26:05;;;;;;;16.42;8.45;;;0.40;99.90;;;;;;5082519;28;20044;-81
2023/04/05 06:28:31;;;;;;;13.57;7.40;;;0.50;99.90;;;;;;5056687;28;20384;-81
2023/04/05 06:30:58;;;;;;;14.10;7.18;;;0.60;99.90;;;;;;5079943;28;20477;-79
2023/04/05 06:33:24;;;;;;;14.48;8.05;;;0.70;99.90;;;;;;5061152;28;20123;-82
2023/04/05 06:35:50;;;;;;;15.13;8.30;;;0.70;99.90;;;;;;5060330;28;20036;-88
2023/04/05 06:38:19;;;;;;;12.20;7.43;;;0.80;99.90;;;;;;5052833;28;20044;-93
2023/04/05 06:40:45;;;;;;;11.80;7.43;;;0.80;99.90;;;;;;5060336;28;20047;-79
2023/04/05 06:43:10;;;;;;;14.70;8.50;;;0.70;99.90;;;;;;5049206;28;20036;-76
2023/04/05 06:45:36;;;;;;;13.98;8.60;;;0.70;99.90;;;;;;5038747;28;20036;-79
2023/04/05 06:48:02;;;;;;;13.95;8.55;;;0.70;99.90;;;;;;5074295;28;20128;-82
2023/04/05 06:50:28;;;;;;;18.90;8.65;;;0.70;99.90;;;;;;5061930;28;20113;-83
2023/04/05 06:52:54;;;;;;;16.85;9.00;;;0.70;99.90;;;;;;5032835;28;20051;-81
2023/04/05 06:55:19;;;;;;;14.90;8.48;;;0.80;99.90;;;;;;5077749;28;20139;-80
2023/04/05 06:57:45;;;;;;;15.57;8.93;;;0.80;99.90;;;;;;5075979;28;20040;-79
2023/04/05 07:00:12;;;;;;;15.95;9.10;;;0.80;99.90;;;;;;5034000;28;20516;-80
2023/04/05 07:02:38;;;;;;;14.65;8.63;;;0.80;99.90;;;;;;5048703;28;20512;-79
2023/04/05 07:05:04;;;;;;;16.85;8.60;;;0.70;99.90;;;;;;5059017;28;20060;-80
2023/04/05 07:07:42;;;;;;;16.75;9.30;;;0.60;99.90;;;;;;5073964;28;20117;-82
2023/04/05 07:10:08;;;;;;;17.35;9.50;;;0.60;99.90;;;;;;5067272;28;20059;-80
2023/04/05 07:12:40;;;;;;;19.10;9.52;;;0.50;99.90;;;;;;5076599;28;20066;-89
2023/04/05 07:15:07;;;;;;;16.13;9.73;;;0.50;99.90;;;;;;5056899;28;20130;-87
2023/04/05 07:17:32;;;;;;;17.33;10.48;;;0.50;99.90;;;;;;5052587;28;20118;-83
2023/04/05 07:19:58;;;;;;;21.05;11.40;;;0.50;96.50;;;;;;5024997;28;20476;-84
2023/04/05 07:22:24;;;;;;;18.92;11.38;;;0.50;99.90;;;;;;5047630;28;20052;-84
2023/04/05 07:25:10;;;;;;;23.13;12.10;;;0.60;91.00;;;;;;5077483;28;20051;-89
2023/04/05 07:27:39;;;;;;;20.23;11.98;;;0.70;43.50;;;;;;5058705;28;20042;-85
2023/04/05 07:30:06;;;;;;;20.80;11.32;;;0.80;43.20;;;;;;5076092;28;20039;-85
2023/04/05 07:32:41;;;;;;;19.17;10.70;;;0.90;10.50;;;;;;5036793;28;20051;-81
2023/04/05 07:35:07;;;;;;;22.40;12.30;;;1.10;15.20;;;;;;5057746;28;20471;-81
2023/04/05 07:37:38;;;;;;;18.88;11.25;;;1.10;1.00;;;;;;5057768;28;20142;-87
2023/04/05 07:40:24;;;;;;;23.52;12.68;;;1.40;1.00;;;;;;5078810;28;20059;-88
2023/04/05 07:42:55;;;;;;;16.13;10.15;;;1.30;1.00;;;;;;5077627;28;20044;-87
2023/04/05 07:45:28;;;;;;;62.80;31.67;;;1.40;1.00;;;;;;5055374;28;20082;-89
2023/04/05 07:48:43;;;;;;;17.88;11.43;;;1.50;1.00;;;;;;5060080;28;20063;-92
2023/04/05 07:51:12;;;;;;;20.65;10.55;;;1.50;1.00;;;;;;5067173;28;20421;-83
2023/04/05 07:53:37;;;;;;;16.23;9.93;;;1.60;1.00;;;;;;5054222;28;20048;-85
2023/04/05 07:56:12;;;;;;;15.50;9.73;;;1.80;1.00;;;;;;5048568;28;20092;-82
2023/04/05 07:58:40;;;;;;;15.82;9.10;;;1.90;1.00;;;;;;5043652;28;20488;-87
2023/04/05 08:01:10;;;;;;;15.95;9.38;;;2.00;99.90;;;;;;5079688;28;20489;-87
2023/04/05 08:03:38;;;;;;;17.33;9.90;;;2.10;99.90;;;;;;5074616;28;20108;-81
2023/04/05 08:06:18;;;;;;;16.35;8.23;;;2.20;99.90;;;;;;5080705;28;20520;-82
2023/04/05 08:08:45;;;;;;;22.65;11.93;;;2.50;99.90;;;;;;5053040;28;20135;-82
2023/04/05 08:11:11;;;;;;;16.15;8.40;;;2.50;99.90;;;;;;5066473;28;20041;-82
2023/04/05 08:13:40;;;;;;;19.27;8.00;;;2.60;99.90;;;;;;5050989;28;20111;-82
2023/04/05 08:16:07;;;;;;;16.92;7.80;;;2.80;99.90;;;;;;5071082;28;20062;-83
2023/04/05 08:18:32;;;;;;;15.45;8.20;;;3.00;99.90;;;;;;5083939;28;20048;-83
2023/04/05 08:20:58;;;;;;;25.35;13.32;;;3.20;99.90;;;;;;5044966;28;20587;-82
2023/04/05 08:23:24;;;;;;;15.15;8.50;;;3.20;99.90;;;;;;5049770;28;20051;-82
2023/04/05 08:25:50;;;;;;;12.95;7.38;;;3.40;99.90;;;;;;5066958;28;20105;-83
2023/04/05 08:28:16;;;;;;;17.27;6.90;;;3.40;99.90;;;;;;5033322;28;20108;-82
2023/04/05 08:30:42;;;;;;;14.93;6.82;;;3.40;99.90;;;;;;5074860;28;20044;-82
2023/04/05 08:33:07;;;;;;;11.77;6.75;;;3.50;99.90;;;;;;5070628;28;20040;-86
2023/04/05 08:35:37;;;;;;;10.70;6.05;;;3.60;99.90;;;;;;5053284;28;20540;-86
2023/04/05 08:38:03;;;;;;;11.13;6.28;;;3.70;99.90;;;;;;5069722;28;20055;-82
2023/04/05 08:40:39;;;;;;;10.38;6.15;;;3.80;99.90;;;;;;5054486;28;20077;-82
2023/04/05 08:43:23;;;;;;;11.88;5.90;;;4.10;99.90;;;;;;5056043;28;20096;-82
2023/04/05 08:45:50;;;;;;;9.60;5.80;;;4.20;99.90;;;;;;5053535;28;20316;-83
2023/04/05 08:48:17;;;;;;;11.55;6.18;;;4.30;99.90;;;;;;5076999;28;20051;-83
2023/04/05 08:50:53;;;;;;;8.77;5.15;;;4.50;99.90;;;;;;5058734;28;20044;-82
2023/04/05 08:53:20;;;;;;;9.75;5.75;;;4.60;99.90;;;;;;5077606;28;20056;-82
2023/04/05 08:55:50;;;;;;;10.27;5.47;;;4.80;99.90;;;;;;5076581;28;20494;-82
2023/04/05 08:58:18;;;;;;;9.30;4.57;;;4.90;99.90;;;;;;5053505;28;20119;-81
2023/04/05 09:00:44;;;;;;;7.28;4.25;;;5.00;98.20;;;;;;5042655;28;20044;-82
2023/04/05 09:03:16;;;;;;;8.35;4.32;;;5.20;89.70;;;;;;5050684;28;20040;-81
2023/04/05 09:05:47;;;;;;;6.80;4.50;;;5.30;69.00;;;;;;5052304;28;20106;-82
2023/04/05 09:08:13;;;;;;;9.75;4.65;;;5.60;43.60;;;;;;5053040;28;21421;-82
2023/04/05 09:10:42;;;;;;;8.27;4.20;;;5.70;43.30;;;;;;5045227;28;20047;-83
2023/04/05 09:13:08;;;;;;;7.10;4.43;;;5.80;24.00;;;;;;5048170;28;20044;-83
2023/04/05 09:15:36;;;;;;;9.15;4.30;;;5.90;7.90;;;;;;5055647;28;20450;-83
2023/04/05 09:18:02;;;;;;;7.25;4.68;;;6.10;8.80;;;;;;5063153;28;20058;-82
2023/04/05 09:20:27;;;;;;;7.22;3.97;;;6.20;1.00;;;;;;5059477;28;20059;-83
2023/04/05 09:22:56;;;;;;;8.38;3.78;;;6.40;1.00;;;;;;5077702;28;20048;-83
2023/04/05 09:25:31;;;;;;;6.80;3.47;;;6.60;1.00;;;;;;5076002;28;20044;-83
2023/04/05 09:27:57;;;;;;;8.32;4.47;;;6.90;1.00;;;;;;5075399;28;20051;-83
2023/04/05 09:30:24;;;;;;;6.35;3.20;;;7.10;1.00;;;;;;5063238;28;20055;-83
2023/04/05 09:32:54;;;;;;;7.80;3.65;;;7.40;1.00;;;;;;5062002;28;20040;-83
2023/04/05 09:35:30;;;;;;;6.90;3.78;;;7.70;1.00;;;;;;5067946;28;20185;-83
2023/04/05 09:38:01;;;;;;;7.80;3.53;;;8.10;1.00;;;;;;5059223;28;20040;-83
2023/04/05 09:40:42;;;;;;;9.07;3.80;;;9.40;1.00;;;;;;5074580;28;20047;-83
2023/04/05 09:43:09;;;;;;;11.40;5.20;;;11.20;1.00;;;;;;5059144;28;20519;-83
2023/04/05 09:45:42;;;;;;;7.55;4.32;;;12.60;1.00;;;;;;5055796;28;20047;-83
2023/04/05 09:48:09;;;;;;;6.43;4.00;;;13.90;1.00;;;;;;5078933;28;20036;-84
2023/04/05 09:50:35;;;;;;;6.00;3.67;;;15.00;1.00;;;;;;5057142;28;20055;-84
2023/04/05 09:53:14;;;;;;;5.95;3.60;;;15.80;1.00;;;;;;5062001;28;20515;-83
2023/04/05 09:55:40;;;;;;;7.38;3.80;;;16.50;1.00;;;;;;5067657;28;20052;-82
2023/04/05 09:58:20;;;;;;;12.30;6.63;;;16.90;1.00;;;;;;5059560;28;20068;-82
2023/04/05 10:00:53;;;;;;;6.07;4.05;;;17.40;1.00;;;;;;5073642;28;20101;-82
2023/04/05 10:03:19;;;;;;;6.57;3.90;;;18.00;1.00;;;;;;5038093;28;20044;-82
2023/04/05 10:05:46;;;;;;;6.35;4.28;;;18.60;1.00;;;;;;5052887;28;21644;-82
2023/04/05 10:08:14;;;;;;;10.00;4.85;;;19.00;1.00;;;;;;5060950;28;20052;-82
2023/04/05 10:10:46;;;;;;;5.13;4.05;;;19.10;1.00;;;;;;5057328;28;20052;-83
2023/04/05 10:13:13;;;;;;;5.28;3.88;;;19.60;1.00;;;;;;5042567;28;20109;-82
2023/04/05 10:15:44;;;;;;;5.50;4.07;;;19.80;1.00;;;;;;5074137;28;20048;-82
2023/04/05 10:18:16;;;;;;;5.10;4.13;;;20.20;1.00;;;;;;5080103;28;20101;-82
2023/04/05 10:20:48;;;;;;;7.07;3.97;;;20.70;1.00;;;;;;5057445;28;20052;-82
2023/04/05 10:23:23;;;;;;;9.75;5.15;;;20.80;1.00;;;;;;5054785;28;20096;-82
2023/04/05 10:25:54;;;;;;;5.67;3.80;;;21.00;1.00;;;;;;5062316;28;20127;-82
2023/04/05 10:28:30;;;;;;;6.78;4.05;;;21.40;1.00;;;;;;5073103;28;20083;-82
2023/04/05 10:31:20;;;;;;;5.22;3.35;;;21.50;1.00;;;;;;5072624;28;20109;-82
2023/04/05 10:33:46;;;;;;;5.57;3.60;;;21.60;1.00;;;;;;5073107;28;20047;-82
2023/04/05 10:36:19;;;;;;;6.43;3.60;;;20.50;1.00;;;;;;5052778;28;20051;-81
2023/04/05 10:39:03;;;;;;;6.22;3.97;;;19.00;1.00;;;;;;5071382;28;20051;-83
2023/04/05 10:41:52;;;;;;;5.25;3.47;;;18.80;1.00;;;;;;5077466;28;20113;-84
2023/04/05 10:44:18;;;;;;;6.95;3.65;;;19.60;1.00;;;;;;5049348;28;20086;-83
2023/04/05 10:46:45;;;;;;;4.90;3.78;;;20.30;1.00;;;;;;5065134;28;20052;-83
2023/04/05 10:49:15;;;;;;;5.00;3.40;;;21.00;1.00;;;;;;5059046;28;20114;-83
2023/04/05 10:51:42;;;;;;;5.78;3.10;;;21.10;1.00;;;;;;5085946;28;20046;-83
2023/04/05 10:54:09;;;;;;;5.68;3.25;;;21.60;1.00;;;;;;5072326;28;20047;-83
2023/04/05 10:56:37;;;;;;;5.28;3.08;;;21.80;1.00;;;;;;5064583;28;20445;-83
2023/04/05 10:59:03;;;;;;;4.40;3.40;;;21.90;1.00;;;;;;5072202;28;20052;-83
2023/04/05 11:01:30;;;;;;;4.82;3.25;;;22.10;1.00;;;;;;5060382;28;20047;-83
2023/04/05 11:04:13;;;;;;;4.80;3.17;;;22.30;1.00;;;;;;5054928;28;20076;-83
2023/04/05 11:06:40;;;;;;;6.18;3.25;;;22.30;1.00;;;;;;5065663;28;20055;-82
2023/04/05 11:09:19;;;;;;;3.90;3.10;;;21.10;1.00;;;;;;5049255;28;20081;-83
2023/04/05 11:11:46;;;;;;;4.65;3.10;;;19.50;1.00;;;;;;5045011;28;20142;-82
2023/04/05 11:14:43;;;;;;;6.43;3.63;;;18.10;1.00;;;;;;5029108;28;20131;-82
2023/04/05 11:17:27;;;;;;;4.85;3.35;;;18.20;1.00;;;;;;5039582;28;20064;-83
2023/04/05 11:20:04;;;;;;;4.57;3.40;;;19.40;1.00;;;;;;5073381;28;20043;-83
2023/04/05 11:22:30;;;;;;;4.90;3.05;;;20.60;1.00;;;;;;5062231;28;20127;-82
2023/04/05 11:25:00;;;;;;;4.80;3.42;;;21.40;1.00;;;;;;5035847;28;20038;-82
2023/04/05 11:27:36;;;;;;;4.60;3.40;;;22.10;1.00;;;;;;5056916;28;20149;-81
2023/04/05 11:30:04;;;;;;;4.65;3.13;;;22.50;1.00;;;;;;5057278;28;20052;-81
2023/04/05 11:32:41;;;;;;;5.65;3.30;;;21.70;1.00;;;;;;5039260;28;20082;-81
2023/04/05 11:35:13;;;;;;;4.38;3.05;;;21.80;1.00;;;;;;5040479;28;20127;-81
2023/04/05 11:38:04;;;;;;;4.72;3.13;;;22.30;1.00;;;;;;5078040;28;20135;-81
2023/04/05 11:40:39;;;;;;;3.60;3.10;;;22.90;1.00;;;;;;5058041;28;20390;-82
2023/04/05 11:43:10;;;;;;;5.90;3.15;;;22.80;1.00;;;;;;5042008;28;20052;-81
2023/04/05 11:45:38;;;;;;;5.43;3.25;;;21.20;1.00;;;;;;5056706;28;20048;-81
2023/04/05 11:48:09;;;;;;;5.88;3.03;;;20.30;1.00;;;;;;5062775;28;20056;-82
2023/04/05 11:50:42;;;;;;;5.95;3.28;;;20.80;1.00;;;;;;5043933;28;20186;-81
2023/04/05 11:53:12;;;;;;;6.90;3.45;;;21.80;1.00;;;;;;5043521;28;20497;-81
2023/04/05 11:55:39;;;;;;;4.85;3.45;;;22.60;1.00;;;;;;5045532;28;20120;-81
2023/04/05 11:58:22;;;;;;;5.10;3.25;;;22.60;1.00;;;;;;5058847;28;20048;-82
2023/04/05 12:01:03;;;;;;;5.57;3.10;;;23.20;1.00;;;;;;5068006;28;20147;-81
2023/04/05 12:03:30;;;;;;;6.40;3.60;;;24.00;1.00;;;;;;5046617;28;20052;-81
2023/04/05 12:05:57;;;;;;;4.82;2.75;;;24.30;1.00;;;;;;5072351;28;20493;-81
2023/04/05 12:08:36;;;;;;;6.38;4.20;;;24.80;1.00;;;;;;5075510;28;20405;-81
2023/04/05 12:11:01;;;;;;;6.35;3.97;;;25.30;1.00;;;;;;5044201;28;20036;-81
2023/04/05 12:13:29;;;;;;;4.10;3.13;;;25.70;1.00;;;;;;5071339;28;20101;-82
2023/04/05 12:16:06;;;;;;;3.92;3.25;;;25.90;1.00;;;;;;5052043;28;20115;-81
2023/04/05 12:18:34;;;;;;;4.13;2.80;;;26.10;1.00;;;;;;5045045;28;20109;-81
2023/04/05 12:21:06;;;;;;;4.32;2.97;;;26.10;1.00;;;;;;5053507;28;20756;-80
2023/04/05 12:23:32;;;;;;;5.47;3.13;;;25.60;1.00;;;;;;5086615;28;20040;-81
2023/04/05 12:25:59;;;;;;;8.13;5.35;;;25.30;1.00;;;;;;5068042;28;20119;-80
2023/04/05 12:28:24;;;;;;;5.25;3.70;;;25.00;1.00;;;;;;5063993;28;20121;-81
2023/04/05 12:30:52;;;;;;;4.20;3.22;;;24.80;1.00;;;;;;5050482;28;20492;-81
2023/04/05 12:33:32;;;;;;;4.55;3.40;;;24.70;1.00;;;;;;5067753;28;20040;-81
2023/04/05 12:36:03;;;;;;;4.63;3.20;;;24.90;1.00;;;;;;5061618;28;20070;-81
2023/04/05 12:38:29;;;;;;;6.97;3.58;;;25.10;1.00;;;;;;5054814;28;20189;-82
2023/04/05 12:41:02;;;;;;;4.20;3.35;;;24.70;1.00;;;;;;5078012;28;20090;-82
2023/04/05 12:43:41;;;;;;;4.85;3.35;;;24.50;1.00;;;;;;5052283;28;20997;-82
2023/04/05 12:46:11;;;;;;;4.90;2.90;;;24.80;1.00;;;;;;5056011;28;20047;-81
2023/04/05 12:48:38;;;;;;;4.82;3.03;;;25.10;1.00;;;;;;5055271;28;20169;-82
2023/04/05 12:51:12;;;;;;;6.85;3.22;;;25.10;1.00;;;;;;5070793;28;20078;-82
2023/04/05 12:53:50;;;;;;;5.03;2.90;;;25.20;1.00;;;;;;5076701;28;20056;-82
2023/04/05 12:56:16;;;;;;;4.07;3.15;;;25.40;1.00;;;;;;5074790;28;20051;-82
2023/04/05 12:58:42;;;;;;;3.35;2.88;;;25.80;1.00;;;;;;5061833;28;20039;-82